Virgie Cenac — WDC2765 — position and weather

sailwx.info

Track history (hours):
 
Tides and Currents Weather Stations Pressure Air Temp Water Temp Dewpoint Dewpoint Depression Visibility Wind Speed Wind Dir Waves Ship Positions

Virgie Cenac

Owner: Cenac Marine Transportation, Inc., Houma, LA. More information available from US FCC via Universal Licensing System and Coast Guard Vessel Documentation Center.

Last reported at 2016-Nov-10 06:21 UTC. Time now 2016-Dec-05 04:26 UTC.
Position N 30°22' W 086°51'.
Warning: this ship's position is 24 days out of date.

Length 18 m; draft 3 m.

Type: Towing. MMSI: 366997430.

Date/timePositionNaut miles runAvg speedWind from/ knotsBaromVisibWave heightAir tempDewpointWater temp
2016-Nov-10 06:21N 30°22' W 086°51'  
2016-Nov-06 13:33N 27°46' W 082°32'4 4.0
2016-Nov-06 12:32N 27°49' W 082°34'4 4.2
2016-Nov-06 11:34N 27°53' W 082°33'0 0.0
2016-Nov-06 10:34N 27°53' W 082°33'0 0.0
2016-Nov-06 08:27N 27°53' W 082°33'0 0.0
2016-Nov-05 23:33N 27°53' W 082°33'1 0.1
2016-Nov-05 12:34N 27°53' W 082°32'0 0.1
2016-Nov-05 11:33N 27°53' W 082°32'0 0.0
2016-Nov-05 10:33N 27°53' W 082°32'0 0.0
2016-Nov-05 09:33N 27°53' W 082°32'0 0.0
2016-Nov-05 08:33N 27°53' W 082°32'0 0.0
2016-Nov-05 07:33N 27°53' W 082°32'0 0.0
2016-Nov-05 04:34N 27°53' W 082°32'0 0.0
2016-Nov-05 02:31N 27°53' W 082°32'0 0.0
2016-Nov-05 01:33N 27°53' W 082°32'0 0.0
2016-Nov-04 23:33N 27°53' W 082°32'0 0.0
2016-Nov-04 22:33N 27°53' W 082°32'0 0.0
2016-Nov-04 21:33N 27°53' W 082°32'0 0.0
2016-Nov-04 20:33N 27°53' W 082°32'1 0.3
2016-Nov-04 18:33N 27°53' W 082°32'  
2016-Nov-01 00:28N 30°27' W 086°15'7 8.0
2016-Oct-31 23:34N 30°26' W 086°23'6 5.5
2016-Oct-31 22:33N 30°26' W 086°30'14 7.1
2016-Oct-31 20:31N 30°24' W 086°46'  
Track history (hours):
 
Tides and Currents Weather Stations Pressure Air Temp Water Temp Dewpoint Dewpoint Depression Visibility Wind Speed Wind Dir Waves Ship Positions

Virgie Cenac

Owner: Cenac Marine Transportation, Inc., Houma, LA. More information available from US FCC via Universal Licensing System and Coast Guard Vessel Documentation Center.

Last reported at 2016-Nov-10 06:21 UTC. Time now 2016-Dec-05 04:26 UTC.
Position N 30°22' W 086°51'.
Warning: this ship's position is 24 days out of date.

Length 18 m; draft 3 m.

Type: Towing. MMSI: 366997430.

Date/timePositionNaut miles runAvg speedWind from/ knotsBaromVisibWave heightAir tempDewpointWater temp
2016-Nov-10 06:21N 30°22' W 086°51'  
2016-Nov-06 13:33N 27°46' W 082°32'4 4.0
2016-Nov-06 12:32N 27°49' W 082°34'4 4.2
2016-Nov-06 11:34N 27°53' W 082°33'0 0.0
2016-Nov-06 10:34N 27°53' W 082°33'0 0.0
2016-Nov-06 08:27N 27°53' W 082°33'0 0.0
2016-Nov-05 23:33N 27°53' W 082°33'1 0.1
2016-Nov-05 12:34N 27°53' W 082°32'0 0.1
2016-Nov-05 11:33N 27°53' W 082°32'0 0.0
2016-Nov-05 10:33N 27°53' W 082°32'0 0.0
2016-Nov-05 09:33N 27°53' W 082°32'0 0.0
2016-Nov-05 08:33N 27°53' W 082°32'0 0.0
2016-Nov-05 07:33N 27°53' W 082°32'0 0.0
2016-Nov-05 04:34N 27°53' W 082°32'0 0.0
2016-Nov-05 02:31N 27°53' W 082°32'0 0.0
2016-Nov-05 01:33N 27°53' W 082°32'0 0.0
2016-Nov-04 23:33N 27°53' W 082°32'0 0.0
2016-Nov-04 22:33N 27°53' W 082°32'0 0.0
2016-Nov-04 21:33N 27°53' W 082°32'0 0.0
2016-Nov-04 20:33N 27°53' W 082°32'1 0.3
2016-Nov-04 18:33N 27°53' W 082°32'  
2016-Nov-01 00:28N 30°27' W 086°15'7 8.0
2016-Oct-31 23:34N 30°26' W 086°23'6 5.5
2016-Oct-31 22:33N 30°26' W 086°30'14 7.1
2016-Oct-31 20:31N 30°24' W 086°46'  

Dump ship's entire track history